createdAt,value
2022-10-19T00:02:17.974Z,12.82
2022-10-19T00:07:20.225Z,12.70
2022-10-19T00:12:22.425Z,12.89
2022-10-19T00:17:24.878Z,12.79
2022-10-19T00:22:27.266Z,12.76
2022-10-19T00:27:29.525Z,12.81
2022-10-19T00:32:32.065Z,12.64
2022-10-19T00:37:34.552Z,12.60
2022-10-19T00:42:36.759Z,12.40
2022-10-19T00:47:39.507Z,12.46
2022-10-19T00:52:42.459Z,12.40
2022-10-19T00:57:44.826Z,12.36
2022-10-19T01:02:47.246Z,12.37
2022-10-19T01:07:50.108Z,12.45
2022-10-19T01:13:10.601Z,12.52
2022-10-19T01:18:26.059Z,12.47
2022-10-19T01:24:05.763Z,12.44
2022-10-19T01:29:26.185Z,12.33
2022-10-19T01:34:31.226Z,12.10
2022-10-19T01:39:49.094Z,12.06
2022-10-19T01:45:04.597Z,12.09
2022-10-19T01:50:13.844Z,11.94
2022-10-19T01:55:18.277Z,11.76
2022-10-19T02:00:23.535Z,11.80
2022-10-19T02:05:31.205Z,11.57
2022-10-19T02:10:38.073Z,11.52
2022-10-19T02:15:43.474Z,11.62
2022-10-19T02:20:46.765Z,11.68
2022-10-19T02:25:49.276Z,11.76
2022-10-19T02:30:51.821Z,11.75
2022-10-19T02:35:54.227Z,11.63
2022-10-19T02:41:12.033Z,11.60
2022-10-19T02:46:44.377Z,11.56
2022-10-19T02:52:01.675Z,11.49
2022-10-19T02:57:27.619Z,11.43
2022-10-19T03:02:29.977Z,11.40
2022-10-19T03:07:32.539Z,11.25
2022-10-19T03:12:35.202Z,11.32
2022-10-19T03:17:37.441Z,11.15
2022-10-19T03:22:39.884Z,11.12
2022-10-19T03:27:42.142Z,11.10
2022-10-19T03:32:44.538Z,11.15
2022-10-19T03:37:46.734Z,11.04
2022-10-19T03:42:49.172Z,11.08
2022-10-19T03:47:52.314Z,11.05
2022-10-19T03:52:55.891Z,10.94
2022-10-19T03:57:58.685Z,10.84
2022-10-19T04:03:01.013Z,11.03
2022-10-19T04:08:03.164Z,10.83
2022-10-19T04:13:05.453Z,10.79
2022-10-19T04:18:07.666Z,10.78
2022-10-19T04:23:10.035Z,10.79
2022-10-19T04:28:12.363Z,10.74
2022-10-19T04:33:14.618Z,10.55
2022-10-19T04:38:17.001Z,10.72
2022-10-19T04:43:19.364Z,10.86
2022-10-19T04:48:21.731Z,10.76
2022-10-19T04:58:32.232Z,10.84
2022-10-19T05:03:34.585Z,10.77
2022-10-19T05:08:37.979Z,10.81
2022-10-19T05:13:41.243Z,10.71
2022-10-19T05:18:43.434Z,10.84
2022-10-19T05:23:46.231Z,10.83
2022-10-19T05:28:57.145Z,10.95
2022-10-19T05:33:59.941Z,11.00
2022-10-19T05:39:14.860Z,11.18
2022-10-19T05:44:22.798Z,11.11
2022-10-19T05:49:25.040Z,11.41
2022-10-19T05:54:28.597Z,11.54
2022-10-19T05:59:31.557Z,11.63
2022-10-19T06:04:34.301Z,11.68
2022-10-19T06:09:37.690Z,11.85
2022-10-19T06:14:39.927Z,11.95
2022-10-19T06:19:42.307Z,12.12
2022-10-19T06:24:44.616Z,12.32
2022-10-19T06:29:46.934Z,12.50
2022-10-19T06:34:50.839Z,12.60
2022-10-19T06:39:55.424Z,12.81
2022-10-19T06:44:57.631Z,12.96
2022-10-19T06:49:59.811Z,13.01
2022-10-19T06:55:02.957Z,13.20
2022-10-19T07:00:09.340Z,13.27
2022-10-19T07:05:11.941Z,13.48
2022-10-19T07:10:14.363Z,13.70
2022-10-19T07:15:16.814Z,13.86
2022-10-19T07:20:19.410Z,14.08
2022-10-19T07:25:21.872Z,14.31
2022-10-19T07:30:24.412Z,14.37
2022-10-19T07:40:52.608Z,14.71
2022-10-19T07:46:03.041Z,14.99
2022-10-19T07:51:07.403Z,15.13
2022-10-19T07:56:12.430Z,14.97
2022-10-19T08:01:16.452Z,15.42
2022-10-19T08:06:22.050Z,15.53
2022-10-19T08:11:33.479Z,15.77
2022-10-19T08:16:40.949Z,15.90
2022-10-19T08:21:47.703Z,15.97
2022-10-19T08:26:51.807Z,15.85
2022-10-19T08:31:54.273Z,16.05
2022-10-19T08:36:56.619Z,16.33
2022-10-19T08:42:14.969Z,16.53
2022-10-19T08:47:54.585Z,16.84
2022-10-19T08:53:03.005Z,17.00
2022-10-19T08:58:21.171Z,17.00
2022-10-19T09:03:54.313Z,17.23
2022-10-19T09:08:58.459Z,17.44
2022-10-19T09:14:30.887Z,17.74
2022-10-19T09:19:33.263Z,17.91
2022-10-19T09:25:18.493Z,17.99
2022-10-19T09:30:23.818Z,18.13
2022-10-19T09:35:31.095Z,18.23
2022-10-19T09:40:35.350Z,18.33
2022-10-19T09:45:43.478Z,18.51
2022-10-19T09:50:46.670Z,18.63
2022-10-19T09:55:57.889Z,18.65
2022-10-19T10:01:01.916Z,18.84
2022-10-19T10:06:07.938Z,19.08
2022-10-19T10:11:15.833Z,19.22
2022-10-19T10:16:21.854Z,19.34
2022-10-19T10:21:35.097Z,19.58
2022-10-19T10:26:43.174Z,19.66
2022-10-19T10:31:46.938Z,19.87
2022-10-19T10:36:52.348Z,19.98
2022-10-19T10:41:56.242Z,20.10
2022-10-19T10:47:01.065Z,20.20
2022-10-19T10:52:18.624Z,20.18
2022-10-19T11:02:58.845Z,20.46
2022-10-19T11:08:31.224Z,20.71
2022-10-19T11:13:42.069Z,20.91
2022-10-19T11:18:49.351Z,21.06
2022-10-19T11:24:12.315Z,21.09
2022-10-19T11:29:51.496Z,21.15
2022-10-19T11:40:29.718Z,21.08
2022-10-19T11:45:31.891Z,21.20
2022-10-19T11:50:58.857Z,21.28
2022-10-19T11:57:01.625Z,21.50
2022-10-19T12:02:41.944Z,21.37
2022-10-19T12:08:08.194Z,21.58
2022-10-19T12:13:15.349Z,21.74
2022-10-19T12:18:41.687Z,21.95
2022-10-19T12:23:47.318Z,22.23
2022-10-19T12:28:53.061Z,22.46
2022-10-19T12:34:19.688Z,22.61
2022-10-19T12:39:39.712Z,22.73
2022-10-19T12:45:10.706Z,22.80
2022-10-19T12:50:12.962Z,23.00
2022-10-19T12:55:26.583Z,23.11
2022-10-19T13:00:35.439Z,23.31
2022-10-19T13:05:37.647Z,23.36
2022-10-19T13:10:39.969Z,23.39
2022-10-19T13:15:42.127Z,23.43
2022-10-19T13:20:54.226Z,23.39
2022-10-19T13:26:30.403Z,23.37
2022-10-19T13:31:33.531Z,23.48
2022-10-19T13:36:39.670Z,23.57
2022-10-19T13:41:47.727Z,23.92
2022-10-19T13:47:06.728Z,24.00
2022-10-19T13:52:27.457Z,24.22
2022-10-19T13:57:56.103Z,24.33
2022-10-19T14:03:22.949Z,24.51
2022-10-19T14:08:46.436Z,24.55
2022-10-19T14:14:15.736Z,24.67
2022-10-19T14:19:32.807Z,24.82
2022-10-19T14:24:36.845Z,24.94
2022-10-19T14:29:50.617Z,24.97
2022-10-19T14:34:53.555Z,25.07
2022-10-19T14:40:01.751Z,25.16
2022-10-19T14:45:05.580Z,25.16
2022-10-19T14:50:12.191Z,24.99
2022-10-19T14:55:18.507Z,24.90
2022-10-19T15:00:23.531Z,24.84
2022-10-19T15:05:31.112Z,24.50
2022-10-19T15:10:46.102Z,23.99
2022-10-19T15:15:52.487Z,23.74
2022-10-19T15:21:13.034Z,23.30
2022-10-19T15:26:27.138Z,23.10
2022-10-19T15:31:30.279Z,22.77
2022-10-19T15:36:33.573Z,22.58
2022-10-19T15:41:38.635Z,22.31
2022-10-19T15:46:49.917Z,22.07
2022-10-19T15:51:52.373Z,21.76
2022-10-19T15:56:56.774Z,21.49
2022-10-19T16:01:59.049Z,21.25
2022-10-19T16:07:02.343Z,21.05
2022-10-19T16:12:04.623Z,20.90
2022-10-19T16:17:06.979Z,20.71
2022-10-19T16:22:09.329Z,20.61
2022-10-19T16:27:15.426Z,20.49
2022-10-19T16:32:17.609Z,20.37
2022-10-19T16:37:19.791Z,20.06
2022-10-19T16:42:23.751Z,20.03
2022-10-19T16:47:27.922Z,19.84
2022-10-19T16:52:32.321Z,19.80
2022-10-19T16:57:34.842Z,19.62
2022-10-19T17:02:39.881Z,19.55
2022-10-19T17:07:45.415Z,19.38
2022-10-19T17:12:47.992Z,19.24
2022-10-19T17:17:50.219Z,19.06
2022-10-19T17:22:52.685Z,18.89
2022-10-19T17:27:55.012Z,18.80
2022-10-19T17:32:57.364Z,18.61
2022-10-19T17:38:00.097Z,18.67
2022-10-19T17:43:02.286Z,18.46
2022-10-19T17:48:05.487Z,18.43
2022-10-19T17:53:07.816Z,18.20
2022-10-19T17:58:09.997Z,18.23
2022-10-19T18:03:12.315Z,18.03
2022-10-19T18:08:14.687Z,17.92
2022-10-19T18:13:16.863Z,17.65
2022-10-19T18:18:19.956Z,17.72
2022-10-19T18:23:22.210Z,17.39
2022-10-19T18:28:24.362Z,17.47
2022-10-19T18:33:30.220Z,17.15
2022-10-19T18:38:35.297Z,17.16
2022-10-19T18:43:37.928Z,17.11
2022-10-19T18:48:40.162Z,16.89
2022-10-19T18:53:44.000Z,16.68
2022-10-19T18:58:47.467Z,16.69
2022-10-19T19:03:50.830Z,16.65
2022-10-19T19:08:57.469Z,16.52
2022-10-19T19:14:02.209Z,16.46
2022-10-19T19:19:06.092Z,16.39
2022-10-19T19:24:08.979Z,16.07
2022-10-19T19:29:11.508Z,16.08
2022-10-19T19:34:14.199Z,15.92
2022-10-19T19:39:19.893Z,16.05
2022-10-19T19:44:22.187Z,15.86
2022-10-19T19:49:25.373Z,15.94
2022-10-19T19:54:27.736Z,15.85
2022-10-19T19:59:30.750Z,15.83
2022-10-19T20:04:33.165Z,15.83
2022-10-19T20:09:35.588Z,15.67
2022-10-19T20:14:37.990Z,15.70
2022-10-19T20:19:40.546Z,15.56
2022-10-19T20:24:42.920Z,15.47
2022-10-19T20:29:45.265Z,15.35
2022-10-19T20:34:47.840Z,15.30
2022-10-19T20:39:50.740Z,15.27
2022-10-19T20:44:55.198Z,15.16
2022-10-19T20:49:57.609Z,15.19
2022-10-19T20:55:00.021Z,14.92
2022-10-19T21:00:02.411Z,14.84
2022-10-19T21:05:04.948Z,14.63
2022-10-19T21:10:07.496Z,14.73
2022-10-19T21:15:10.314Z,14.81
2022-10-19T21:20:12.519Z,14.56
2022-10-19T21:25:14.962Z,14.61
2022-10-19T21:30:17.219Z,14.65
2022-10-19T21:35:19.552Z,14.39
2022-10-19T21:40:21.722Z,14.32
2022-10-19T21:45:30.490Z,14.40
2022-10-19T21:50:33.395Z,14.28
2022-10-19T21:55:36.644Z,14.22
2022-10-19T22:00:39.249Z,14.14
2022-10-19T22:05:50.655Z,13.90
2022-10-19T22:10:53.604Z,13.83
2022-10-19T22:15:55.981Z,13.88
2022-10-19T22:20:58.318Z,13.90
2022-10-19T22:26:00.927Z,13.90
2022-10-19T22:31:03.105Z,13.79
2022-10-19T22:36:07.990Z,13.97
2022-10-19T22:42:06.605Z,13.85
2022-10-19T22:48:05.050Z,13.88
2022-10-19T22:53:07.210Z,13.95
2022-10-19T22:58:12.881Z,13.74
2022-10-19T23:03:15.232Z,13.66
2022-10-19T23:08:17.371Z,13.37
2022-10-19T23:13:19.602Z,13.63
2022-10-19T23:18:22.012Z,13.64
2022-10-19T23:23:24.561Z,13.43
2022-10-19T23:28:27.152Z,13.38
2022-10-19T23:33:29.302Z,13.23
2022-10-19T23:38:31.494Z,13.23
2022-10-19T23:43:33.926Z,13.45
2022-10-19T23:48:36.773Z,13.32
2022-10-19T23:53:41.669Z,13.10
2022-10-19T23:58:44.390Z,12.75
